Time;durP1;ratioP1;P1;durP2;ratioP2;P2;SDS_P1;SDS_P2;PMS_P1;PMS_P2;Temp;Humidity;BMP_temperature;BMP_pressure;BME280_temperature;BME280_humidity;BME280_pressure;Samples;Min_cycle;Max_cycle;Signal;HPM_P1;HPM_P2
2024/02/27 00:00:22;;;;;;;9.70;5.37;;;7.30;99.90;;;;;;4994760;28;20472;-65
2024/02/27 00:02:50;;;;;;;7.50;4.90;;;7.30;99.90;;;;;;4994946;28;20467;-64
2024/02/27 00:05:18;;;;;;;7.50;5.20;;;7.30;99.90;;;;;;4994825;28;20446;-66
2024/02/27 00:07:44;;;;;;;9.50;4.97;;;7.30;99.90;;;;;;4996651;28;20449;-65
2024/02/27 00:10:14;;;;;;;8.17;5.60;;;7.30;99.90;;;;;;4998398;28;20466;-65
2024/02/27 00:12:41;;;;;;;8.17;5.20;;;7.30;99.90;;;;;;4994790;28;20477;-65
2024/02/27 00:15:08;;;;;;;7.47;5.00;;;7.30;99.90;;;;;;4994975;28;20478;-64
2024/02/27 00:17:35;;;;;;;7.00;4.70;;;7.30;99.90;;;;;;4994982;28;21018;-64
2024/02/27 00:20:04;;;;;;;8.27;4.83;;;7.30;99.90;;;;;;4993975;28;20978;-65
2024/02/27 00:22:31;;;;;;;7.93;5.47;;;7.30;99.90;;;;;;4994697;28;20541;-66
2024/02/27 00:24:58;;;;;;;6.43;4.40;;;7.30;99.90;;;;;;4994397;28;20989;-64
2024/02/27 00:27:25;;;;;;;6.13;4.33;;;7.70;99.90;;;;;;4994852;28;20783;-64
2024/02/27 00:29:53;;;;;;;4.70;3.83;;;7.30;99.90;;;;;;4994499;28;20462;-64
2024/02/27 00:32:20;;;;;;;6.50;4.87;;;7.30;99.90;;;;;;4994795;28;20485;-64
2024/02/27 00:34:47;;;;;;;5.17;4.30;;;7.20;99.90;;;;;;4995045;28;20457;-64
2024/02/27 00:37:15;;;;;;;5.47;4.13;;;7.30;99.90;;;;;;4994707;28;20482;-65
2024/02/27 00:39:42;;;;;;;5.70;4.73;;;7.30;99.90;;;;;;4993695;28;20524;-64
2024/02/27 00:42:09;;;;;;;6.30;4.43;;;7.30;99.90;;;;;;4994536;28;20525;-65
2024/02/27 00:44:38;;;;;;;6.47;5.00;;;7.20;99.90;;;;;;4994171;28;20965;-65
2024/02/27 00:47:05;;;;;;;6.30;4.13;;;7.30;99.90;;;;;;4994683;28;20967;-64
2024/02/27 00:49:32;;;;;;;6.80;4.00;;;7.30;99.90;;;;;;4994011;28;20462;-64
2024/02/27 00:51:58;;;;;;;7.00;4.93;;;7.20;99.90;;;;;;4996943;28;20569;-64
2024/02/27 00:54:27;;;;;;;5.27;4.63;;;7.20;99.90;;;;;;4995685;28;20454;-65
2024/02/27 00:56:54;;;;;;;7.97;5.50;;;7.20;99.90;;;;;;4994408;28;20546;-63
2024/02/27 00:59:20;;;;;;;14.70;4.47;;;7.20;99.90;;;;;;4994027;28;20573;-64
2024/02/27 01:01:47;;;;;;;6.93;4.83;;;7.20;99.90;;;;;;4994892;28;20809;-64
2024/02/27 01:04:14;;;;;;;6.13;3.33;;;7.20;99.90;;;;;;4996079;28;20442;-64
2024/02/27 01:06:41;;;;;;;10.70;5.00;;;7.20;99.90;;;;;;4995664;28;20477;-64
2024/02/27 01:09:08;;;;;;;6.87;5.73;;;7.20;99.90;;;;;;4996195;28;20537;-65
2024/02/27 01:11:36;;;;;;;5.63;3.97;;;7.10;99.90;;;;;;4996094;28;20580;-64
2024/02/27 01:14:03;;;;;;;9.70;4.80;;;7.10;99.90;;;;;;4996804;28;20481;-65
2024/02/27 01:16:30;;;;;;;7.73;4.37;;;7.10;99.90;;;;;;4996550;28;20939;-65
2024/02/27 01:18:57;;;;;;;5.07;3.90;;;7.10;99.90;;;;;;4995965;28;20506;-64
2024/02/27 01:21:24;;;;;;;6.40;3.70;;;7.10;99.90;;;;;;4995020;28;20541;-65
2024/02/27 01:23:51;;;;;;;7.07;5.33;;;7.10;99.90;;;;;;4994018;28;20434;-64
2024/02/27 01:26:17;;;;;;;6.50;4.30;;;7.10;99.90;;;;;;4996995;28;20533;-65
2024/02/27 01:28:46;;;;;;;8.63;4.70;;;7.10;99.90;;;;;;4996957;28;20529;-65
2024/02/27 01:31:12;;;;;;;4.77;4.00;;;7.10;99.90;;;;;;4993135;28;20594;-64
2024/02/27 01:33:39;;;;;;;6.83;5.47;;;7.10;99.90;;;;;;4993578;28;20529;-65
2024/02/27 01:36:07;;;;;;;7.53;5.10;;;7.10;99.90;;;;;;4993826;28;20442;-64
2024/02/27 01:38:34;;;;;;;6.13;4.30;;;7.10;99.90;;;;;;4993699;28;20435;-65
2024/02/27 01:41:01;;;;;;;6.47;4.17;;;7.10;99.90;;;;;;4993637;28;20545;-64
2024/02/27 01:43:28;;;;;;;6.27;4.23;;;7.10;99.90;;;;;;4993339;28;20454;-64
2024/02/27 01:46:06;;;;;;;7.27;4.30;;;7.10;99.90;;;;;;4993236;28;20445;-64
2024/02/27 01:48:34;;;;;;;8.17;4.60;;;7.00;99.90;;;;;;4993440;28;21015;-64
2024/02/27 01:51:02;;;;;;;7.10;4.00;;;7.00;99.90;;;;;;4993018;28;20477;-64
2024/02/27 01:53:29;;;;;;;10.20;4.63;;;7.00;99.90;;;;;;4993221;28;20540;-64
2024/02/27 01:55:56;;;;;;;8.30;5.40;;;7.00;99.90;;;;;;4992858;28;20455;-64
2024/02/27 01:58:23;;;;;;;6.20;4.70;;;7.00;99.90;;;;;;4992818;28;20540;-64
2024/02/27 02:00:51;;;;;;;7.80;4.53;;;7.00;99.90;;;;;;4992482;28;20462;-63
2024/02/27 02:03:23;;;;;;;7.87;4.13;;;6.90;99.90;;;;;;4995991;28;21015;-65
2024/02/27 02:05:50;;;;;;;7.57;4.57;;;6.90;99.90;;;;;;4995518;28;20529;-64
2024/02/27 02:08:17;;;;;;;6.03;4.30;;;6.90;99.90;;;;;;4992895;28;20442;-64
2024/02/27 02:10:44;;;;;;;6.23;4.80;;;6.80;99.90;;;;;;4992138;28;20463;-63
2024/02/27 02:13:11;;;;;;;6.73;4.77;;;7.00;99.90;;;;;;4992543;28;20582;-63
2024/02/27 02:15:38;;;;;;;5.23;3.90;;;6.90;99.90;;;;;;4992795;28;20438;-65
2024/02/27 02:18:05;;;;;;;8.23;5.33;;;7.00;99.90;;;;;;4992809;28;20977;-63
2024/02/27 02:20:33;;;;;;;7.97;5.33;;;6.90;99.90;;;;;;4991260;28;20513;-63
2024/02/27 02:23:01;;;;;;;5.93;4.10;;;7.00;99.90;;;;;;4992361;28;20439;-65
2024/02/27 02:25:30;;;;;;;5.50;4.43;;;7.10;99.90;;;;;;4992492;28;20810;-63
2024/02/27 02:27:57;;;;;;;10.17;4.50;;;7.10;99.90;;;;;;4992352;28;20453;-65
2024/02/27 02:30:24;;;;;;;7.00;4.60;;;7.00;99.90;;;;;;4991812;28;20494;-64
2024/02/27 02:32:52;;;;;;;4.70;4.17;;;7.10;99.90;;;;;;4992514;28;20560;-64
2024/02/27 02:35:19;;;;;;;9.20;4.60;;;7.10;99.90;;;;;;4992592;28;20963;-64
2024/02/27 02:37:49;;;;;;;11.40;5.33;;;7.00;99.90;;;;;;4993788;28;20880;-65
2024/02/27 02:40:17;;;;;;;5.57;5.00;;;7.00;99.90;;;;;;4996273;28;20466;-65
2024/02/27 02:42:44;;;;;;;7.53;4.40;;;7.00;99.90;;;;;;4992186;28;20457;-64
2024/02/27 02:45:11;;;;;;;9.50;4.40;;;7.10;99.90;;;;;;4992363;28;20542;-64
2024/02/27 02:47:38;;;;;;;8.23;4.20;;;7.00;99.90;;;;;;4992276;28;20477;-65
2024/02/27 02:50:06;;;;;;;5.50;3.70;;;7.00;99.90;;;;;;4991886;28;20471;-64
2024/02/27 02:52:33;;;;;;;8.50;4.80;;;7.00;99.90;;;;;;4992029;28;20573;-63
2024/02/27 02:55:02;;;;;;;5.40;4.23;;;7.00;99.90;;;;;;4992019;28;20532;-65
2024/02/27 02:57:29;;;;;;;6.73;4.07;;;7.00;99.90;;;;;;4992143;28;20439;-64
2024/02/27 02:59:56;;;;;;;5.63;4.30;;;7.00;99.90;;;;;;4991903;28;20466;-63
2024/02/27 03:02:23;;;;;;;6.67;5.40;;;6.90;99.90;;;;;;4991850;28;20443;-63
2024/02/27 03:04:49;;;;;;;6.73;4.70;;;6.90;99.90;;;;;;4992254;28;20971;-64
2024/02/27 03:07:16;;;;;;;8.33;4.67;;;7.00;99.90;;;;;;4992538;28;20446;-64
2024/02/27 03:09:43;;;;;;;5.70;4.00;;;6.90;99.90;;;;;;4991572;28;20501;-64
2024/02/27 03:12:12;;;;;;;7.37;5.30;;;6.90;99.90;;;;;;4992334;28;20482;-64
2024/02/27 03:14:45;;;;;;;11.00;5.10;;;7.00;99.90;;;;;;4996693;28;20988;-65
2024/02/27 03:17:13;;;;;;;5.73;4.17;;;7.00;99.90;;;;;;4993258;28;20583;-63
2024/02/27 03:19:40;;;;;;;6.00;4.90;;;7.00;99.90;;;;;;4992931;28;20480;-65
2024/02/27 03:22:08;;;;;;;6.17;4.67;;;7.00;99.90;;;;;;4993578;28;20449;-64
2024/02/27 03:24:35;;;;;;;6.63;4.63;;;7.00;99.90;;;;;;4993360;28;20530;-65
2024/02/27 03:27:02;;;;;;;5.73;4.50;;;7.00;99.90;;;;;;4992974;28;20482;-64
2024/02/27 03:29:30;;;;;;;8.43;4.10;;;6.90;99.90;;;;;;4991606;28;20463;-65
2024/02/27 03:31:57;;;;;;;5.20;3.70;;;6.90;99.90;;;;;;4994947;28;20548;-65
2024/02/27 03:34:26;;;;;;;6.30;3.90;;;6.90;99.90;;;;;;4995364;28;20485;-65
2024/02/27 03:36:53;;;;;;;6.57;3.97;;;6.90;99.90;;;;;;4995663;28;20454;-64
2024/02/27 03:39:20;;;;;;;6.50;5.10;;;6.90;99.90;;;;;;4995259;28;20557;-64
2024/02/27 03:41:47;;;;;;;6.77;4.40;;;6.90;99.90;;;;;;4995470;28;20528;-64
2024/02/27 03:44:13;;;;;;;5.77;4.27;;;6.80;99.90;;;;;;4995712;28;20536;-64
2024/02/27 03:46:42;;;;;;;4.87;3.97;;;6.90;99.90;;;;;;4995800;28;20947;-64
2024/02/27 03:49:09;;;;;;;6.20;4.67;;;6.70;99.90;;;;;;4995226;28;20443;-64
2024/02/27 03:51:36;;;;;;;8.00;5.87;;;6.80;99.90;;;;;;4998076;28;20522;-64
2024/02/27 03:54:03;;;;;;;4.97;4.47;;;6.70;99.90;;;;;;4999329;28;20448;-65
2024/02/27 03:56:30;;;;;;;9.07;4.10;;;6.70;99.90;;;;;;4995443;28;20460;-64
2024/02/27 03:58:57;;;;;;;8.10;4.80;;;6.70;99.90;;;;;;4995611;28;20483;-64
2024/02/27 04:01:24;;;;;;;8.07;4.40;;;6.70;99.90;;;;;;4995500;28;20472;-64
2024/02/27 04:03:52;;;;;;;5.60;4.13;;;6.60;99.90;;;;;;4995344;28;20442;-64
2024/02/27 04:06:19;;;;;;;6.83;4.20;;;6.60;99.90;;;;;;4995546;28;20980;-63
2024/02/27 04:08:51;;;;;;;6.93;4.47;;;6.60;99.90;;;;;;4994876;28;21106;-66
2024/02/27 04:11:18;;;;;;;7.30;4.77;;;6.60;99.90;;;;;;4995249;28;20473;-64
2024/02/27 04:13:44;;;;;;;9.63;4.83;;;6.50;99.90;;;;;;4994879;28;20575;-64
2024/02/27 04:16:11;;;;;;;6.13;3.43;;;6.60;99.90;;;;;;4995144;28;20943;-64
2024/02/27 04:18:38;;;;;;;7.03;4.50;;;6.70;99.90;;;;;;4995041;28;20994;-64
2024/02/27 04:21:06;;;;;;;7.60;5.53;;;6.50;99.90;;;;;;4994673;28;20826;-64
2024/02/27 04:23:33;;;;;;;8.20;4.73;;;6.50;99.90;;;;;;4995559;28;20523;-64
2024/02/27 04:26:01;;;;;;;8.30;5.87;;;6.60;99.90;;;;;;4998329;28;20536;-64
2024/02/27 04:28:28;;;;;;;6.70;4.67;;;6.60;99.90;;;;;;4997589;28;20880;-64
2024/02/27 04:30:54;;;;;;;8.20;4.93;;;6.50;99.90;;;;;;4994789;28;20557;-64
2024/02/27 04:33:21;;;;;;;8.87;6.03;;;6.50;99.90;;;;;;4995173;28;20485;-64
2024/02/27 04:35:48;;;;;;;7.73;4.70;;;6.50;99.90;;;;;;4995337;28;20819;-64
2024/02/27 04:38:16;;;;;;;7.30;5.20;;;6.50;99.90;;;;;;4994679;28;20446;-63
2024/02/27 04:40:43;;;;;;;7.20;4.80;;;6.60;99.90;;;;;;4994167;28;20925;-63
2024/02/27 04:43:10;;;;;;;8.77;5.03;;;6.60;99.90;;;;;;4993992;28;20534;-64
2024/02/27 04:45:37;;;;;;;8.83;6.60;;;6.50;99.90;;;;;;4994841;28;20931;-64
2024/02/27 04:48:06;;;;;;;9.20;5.63;;;6.60;99.90;;;;;;4994379;28;20481;-64
2024/02/27 04:50:33;;;;;;;7.90;5.07;;;6.50;99.90;;;;;;4994002;28;20471;-64
2024/02/27 04:53:00;;;;;;;8.27;5.10;;;6.50;99.90;;;;;;4994187;28;20930;-64
2024/02/27 04:55:29;;;;;;;11.43;5.87;;;6.50;99.90;;;;;;4994246;28;20541;-64
2024/02/27 04:57:56;;;;;;;8.00;4.80;;;6.50;99.90;;;;;;4994821;28;20449;-64
2024/02/27 05:00:23;;;;;;;11.03;4.50;;;6.40;99.90;;;;;;4994351;28;20478;-64
2024/02/27 05:02:50;;;;;;;11.40;5.60;;;6.40;99.90;;;;;;4994471;28;20442;-64
2024/02/27 05:05:17;;;;;;;8.03;4.43;;;6.30;99.90;;;;;;4994015;28;20534;-63
2024/02/27 05:07:44;;;;;;;9.07;4.60;;;6.30;99.90;;;;;;4993792;28;20482;-63
2024/02/27 05:10:11;;;;;;;7.90;5.43;;;6.30;99.90;;;;;;4993477;28;20470;-63
2024/02/27 05:12:39;;;;;;;11.77;6.07;;;6.30;99.90;;;;;;4993379;28;20881;-64
2024/02/27 05:15:07;;;;;;;8.63;5.97;;;6.30;99.90;;;;;;4993995;28;20529;-64
2024/02/27 05:17:33;;;;;;;9.10;6.53;;;6.30;99.90;;;;;;4994163;28;20537;-63
2024/02/27 05:20:00;;;;;;;11.00;5.43;;;6.30;99.90;;;;;;4992935;28;20484;-64
2024/02/27 05:22:27;;;;;;;9.00;5.20;;;6.20;99.90;;;;;;4993491;28;20597;-65
2024/02/27 05:24:54;;;;;;;11.27;6.13;;;6.30;99.90;;;;;;4993383;28;20449;-65
2024/02/27 05:27:21;;;;;;;8.00;5.10;;;6.20;99.90;;;;;;4993701;28;20442;-62
2024/02/27 05:29:49;;;;;;;7.53;4.97;;;6.40;99.90;;;;;;4993565;28;20553;-64
2024/02/27 05:32:18;;;;;;;9.70;6.60;;;6.30;99.90;;;;;;4994342;28;20930;-65
2024/02/27 05:34:44;;;;;;;9.57;6.10;;;6.20;99.90;;;;;;4997170;28;20449;-65
2024/02/27 05:37:13;;;;;;;12.70;5.80;;;6.30;99.90;;;;;;4993655;28;21021;-64
2024/02/27 05:39:41;;;;;;;8.27;5.23;;;6.20;99.90;;;;;;4992705;28;20494;-64
2024/02/27 05:42:08;;;;;;;12.20;5.53;;;6.30;99.90;;;;;;4993555;28;20452;-64
2024/02/27 05:44:35;;;;;;;8.83;5.57;;;6.10;99.90;;;;;;4993666;28;20809;-64
2024/02/27 05:47:04;;;;;;;9.30;6.07;;;6.10;99.90;;;;;;4993419;28;20456;-64
2024/02/27 05:49:31;;;;;;;7.80;5.50;;;6.10;99.90;;;;;;4993950;28;20473;-65
2024/02/27 05:51:58;;;;;;;11.20;7.07;;;6.10;99.90;;;;;;4994848;28;20491;-65
2024/02/27 05:54:25;;;;;;;12.10;7.20;;;6.10;99.90;;;;;;4993333;28;20965;-63
2024/02/27 05:56:53;;;;;;;13.43;5.97;;;6.20;99.90;;;;;;4993089;28;20950;-64
2024/02/27 05:59:20;;;;;;;9.90;6.17;;;6.00;99.90;;;;;;4992394;28;20480;-64
2024/02/27 06:01:47;;;;;;;10.30;5.87;;;6.00;99.90;;;;;;4993500;28;20865;-65
2024/02/27 06:04:15;;;;;;;10.87;6.70;;;6.00;99.90;;;;;;4994047;28;20445;-64
2024/02/27 06:06:42;;;;;;;12.53;7.30;;;5.90;99.90;;;;;;4994243;28;20489;-64
2024/02/27 06:09:09;;;;;;;10.77;6.80;;;6.00;99.90;;;;;;4993272;28;20457;-63
2024/02/27 06:11:36;;;;;;;13.83;6.60;;;6.00;99.90;;;;;;4993299;28;20537;-64
2024/02/27 06:14:03;;;;;;;10.10;6.27;;;6.00;99.90;;;;;;4992902;28;20478;-66
2024/02/27 06:16:29;;;;;;;10.27;7.40;;;5.90;99.90;;;;;;4992976;28;20468;-64
2024/02/27 06:18:56;;;;;;;11.33;6.73;;;5.90;99.90;;;;;;4992753;28;20449;-64
2024/02/27 06:24:09;;;;;;;28.60;9.43;;;5.90;99.90;;;;;;4997532;28;20871;-65
2024/02/27 06:26:36;;;;;;;12.00;8.20;;;5.90;99.90;;;;;;4992950;28;20572;-65
2024/02/27 06:29:03;;;;;;;20.07;8.37;;;5.90;99.90;;;;;;4992178;28;20528;-64
2024/02/27 06:31:30;;;;;;;10.57;7.33;;;5.90;99.90;;;;;;4992196;28;20801;-64
2024/02/27 06:33:57;;;;;;;14.20;8.10;;;5.90;99.90;;;;;;4992316;28;20489;-63
2024/02/27 06:36:25;;;;;;;9.83;7.33;;;5.90;99.90;;;;;;4992611;28;20446;-63
2024/02/27 06:38:55;;;;;;;18.80;9.60;;;5.90;99.90;;;;;;4991944;28;20449;-64
2024/02/27 06:41:22;;;;;;;12.07;8.20;;;5.90;99.90;;;;;;4992191;28;20450;-64
2024/02/27 06:43:50;;;;;;;14.87;8.10;;;5.90;99.90;;;;;;4992171;28;20528;-65
2024/02/27 06:46:16;;;;;;;13.50;9.00;;;6.00;99.90;;;;;;4992144;28;20458;-63
2024/02/27 06:48:43;;;;;;;14.60;8.40;;;6.00;99.90;;;;;;4992321;28;20532;-65
2024/02/27 06:51:10;;;;;;;15.07;9.47;;;6.00;99.90;;;;;;4991896;28;20764;-63
2024/02/27 06:53:39;;;;;;;15.77;10.00;;;6.00;99.90;;;;;;4992250;28;20491;-64
2024/02/27 06:56:06;;;;;;;11.17;8.73;;;6.00;99.90;;;;;;4992629;28;20961;-64
2024/02/27 06:58:33;;;;;;;14.37;9.00;;;6.00;99.90;;;;;;4995780;28;21013;-64
2024/02/27 07:01:01;;;;;;;20.87;11.57;;;6.00;99.90;;;;;;4994137;28;20465;-64
2024/02/27 07:03:28;;;;;;;20.37;11.50;;;6.10;99.90;;;;;;4992534;28;20449;-65
2024/02/27 07:05:54;;;;;;;21.77;10.10;;;6.20;99.90;;;;;;4994332;28;20445;-65
2024/02/27 07:08:21;;;;;;;22.77;12.40;;;5.90;99.90;;;;;;4996203;28;20548;-65
2024/02/27 07:10:50;;;;;;;23.40;12.47;;;6.20;99.90;;;;;;4995549;28;20947;-64
2024/02/27 07:13:38;;;;;;;26.33;13.03;;;6.50;99.90;;;;;;4995766;28;21021;-65
2024/02/27 07:16:05;;;;;;;24.47;13.10;;;6.30;99.90;;;;;;4995089;28;20516;-64
2024/02/27 07:18:32;;;;;;;23.40;11.30;;;6.20;99.90;;;;;;4995761;28;20534;-65
2024/02/27 07:20:59;;;;;;;23.60;10.63;;;6.20;99.90;;;;;;4995014;28;20505;-63
2024/02/27 07:23:26;;;;;;;23.77;11.60;;;6.20;99.90;;;;;;4995939;28;20442;-63
2024/02/27 07:25:54;;;;;;;21.17;12.57;;;6.20;99.90;;;;;;4996002;28;20838;-64
2024/02/27 07:28:21;;;;;;;30.60;12.63;;;6.30;99.90;;;;;;4995589;28;20485;-64
2024/02/27 07:30:49;;;;;;;17.87;10.90;;;6.30;99.90;;;;;;5007485;23;20548;-66
2024/02/27 07:33:16;;;;;;;24.70;12.23;;;6.40;99.90;;;;;;4996151;28;20486;-65
2024/02/27 07:35:43;;;;;;;24.13;10.17;;;6.40;99.90;;;;;;4996071;28;20469;-66
2024/02/27 07:38:10;;;;;;;23.30;12.53;;;6.40;99.90;;;;;;4995453;28;20541;-65
2024/02/27 07:40:37;;;;;;;22.73;10.80;;;6.50;99.90;;;;;;4995513;28;20469;-65
2024/02/27 07:43:05;;;;;;;24.40;13.93;;;6.50;99.90;;;;;;4995441;28;20530;-66
2024/02/27 07:45:33;;;;;;;24.07;12.20;;;6.50;99.90;;;;;;4995983;28;20445;-67
2024/02/27 07:48:00;;;;;;;23.47;11.03;;;6.50;99.90;;;;;;4995773;28;20477;-66
2024/02/27 07:50:27;;;;;;;28.57;13.50;;;6.60;99.90;;;;;;4992909;28;20466;-66
2024/02/27 07:52:55;;;;;;;27.93;12.57;;;6.70;99.90;;;;;;4992502;28;21016;-65
2024/02/27 07:55:23;;;;;;;20.57;10.93;;;6.70;99.90;;;;;;4994701;28;20541;-70
2024/02/27 07:57:50;;;;;;;18.80;11.73;;;6.80;99.90;;;;;;4991270;28;20469;-66
2024/02/27 08:00:19;;;;;;;22.93;12.43;;;6.80;99.90;;;;;;4994302;28;20549;-65
2024/02/27 08:02:46;;;;;;;35.07;14.37;;;6.80;99.90;;;;;;4993124;28;20849;-66
2024/02/27 08:05:13;;;;;;;26.70;10.53;;;6.80;99.90;;;;;;4994607;28;20812;-66
2024/02/27 08:07:40;;;;;;;23.23;12.27;;;7.00;99.90;;;;;;4993978;28;20467;-66
2024/02/27 08:10:07;;;;;;;31.87;12.17;;;7.00;99.90;;;;;;4994168;28;20544;-65
2024/02/27 08:12:34;;;;;;;24.40;12.23;;;7.00;99.90;;;;;;4994386;28;20499;-66
2024/02/27 08:15:01;;;;;;;25.27;12.70;;;6.90;99.90;;;;;;4994312;28;20485;-65
2024/02/27 08:17:29;;;;;;;22.03;11.73;;;6.90;99.90;;;;;;4993088;28;20525;-66
2024/02/27 08:19:56;;;;;;;24.93;10.80;;;7.00;99.90;;;;;;4993605;28;20549;-65
2024/02/27 08:22:23;;;;;;;22.80;13.57;;;7.00;99.90;;;;;;4993428;28;20521;-65
2024/02/27 08:24:50;;;;;;;28.03;13.60;;;6.90;99.90;;;;;;4994263;28;20446;-65
2024/02/27 08:27:16;;;;;;;21.57;11.87;;;6.90;99.90;;;;;;4993570;28;20470;-66
2024/02/27 08:29:43;;;;;;;26.87;13.40;;;7.00;99.90;;;;;;4993452;28;20455;-65
2024/02/27 08:32:10;;;;;;;29.00;14.43;;;7.00;99.90;;;;;;4993988;28;20933;-67
2024/02/27 08:34:39;;;;;;;27.73;14.27;;;7.10;99.90;;;;;;4991493;28;20514;-65
2024/02/27 08:37:06;;;;;;;25.00;12.77;;;7.10;99.90;;;;;;4993280;28;20438;-66
2024/02/27 08:39:32;;;;;;;19.50;11.43;;;7.20;99.90;;;;;;4988816;28;20553;-66
2024/02/27 08:42:00;;;;;;;23.50;13.17;;;7.20;99.90;;;;;;4991730;28;20442;-66
2024/02/27 08:44:27;;;;;;;26.70;12.97;;;7.20;99.90;;;;;;4993832;28;20493;-66
2024/02/27 08:46:54;;;;;;;26.33;13.90;;;7.30;99.90;;;;;;4993615;28;20485;-66
2024/02/27 08:49:21;;;;;;;29.20;13.80;;;7.30;99.90;;;;;;4993611;28;20458;-66
2024/02/27 08:51:49;;;;;;;28.17;14.30;;;7.30;99.90;;;;;;4993939;28;20526;-66
2024/02/27 08:54:16;;;;;;;17.80;10.13;;;7.40;99.90;;;;;;4994088;28;20538;-66
2024/02/27 08:56:43;;;;;;;24.70;12.63;;;7.40;99.90;;;;;;4993855;28;20450;-67
2024/02/27 08:59:10;;;;;;;27.83;13.80;;;7.40;99.90;;;;;;4993368;28;20490;-65
2024/02/27 09:01:37;;;;;;;29.07;14.20;;;7.40;99.90;;;;;;4992747;28;20480;-65
2024/02/27 09:04:04;;;;;;;30.33;14.97;;;7.40;99.90;;;;;;4993527;28;20470;-65
2024/02/27 09:06:31;;;;;;;26.90;14.27;;;7.30;99.90;;;;;;4993308;28;20477;-67
2024/02/27 09:08:59;;;;;;;24.70;13.63;;;7.30;99.90;;;;;;4992954;28;20791;-65
2024/02/27 09:11:26;;;;;;;25.63;14.20;;;7.40;99.90;;;;;;4993242;28;20493;-67
2024/02/27 09:13:53;;;;;;;27.83;13.80;;;7.30;99.90;;;;;;4993142;28;20525;-65
2024/02/27 09:16:20;;;;;;;25.30;13.00;;;7.30;99.90;;;;;;4990351;28;20938;-66
2024/02/27 09:18:47;;;;;;;27.93;12.90;;;7.30;99.90;;;;;;4993424;28;20536;-68
2024/02/27 09:21:14;;;;;;;28.03;12.17;;;7.30;99.90;;;;;;4992873;28;20550;-69
2024/02/27 09:23:41;;;;;;;25.70;13.73;;;7.30;99.90;;;;;;4990775;28;20935;-65
2024/02/27 09:26:09;;;;;;;26.77;13.60;;;7.20;99.90;;;;;;4993135;28;20475;-68
2024/02/27 09:28:36;;;;;;;23.70;12.80;;;7.30;99.90;;;;;;4992560;28;20482;-66
2024/02/27 09:31:04;;;;;;;22.50;11.53;;;7.40;99.90;;;;;;4992625;28;20470;-66
2024/02/27 09:33:31;;;;;;;32.27;12.07;;;7.30;99.90;;;;;;4993367;28;20888;-67
2024/02/27 09:35:58;;;;;;;24.53;10.90;;;7.30;99.90;;;;;;4993622;28;20441;-67
2024/02/27 09:38:25;;;;;;;21.43;11.27;;;7.30;99.90;;;;;;4992084;28;20438;-68
2024/02/27 09:40:54;;;;;;;20.23;11.20;;;7.30;99.90;;;;;;4990017;28;20802;-69
2024/02/27 09:43:24;;;;;;;21.07;12.47;;;7.30;99.90;;;;;;4992240;28;20816;-68
2024/02/27 09:45:51;;;;;;;23.27;12.20;;;7.30;99.90;;;;;;4993388;28;21021;-66
2024/02/27 09:48:18;;;;;;;26.63;13.83;;;7.30;99.90;;;;;;4993289;28;20478;-67
2024/02/27 09:50:48;;;;;;;22.97;13.50;;;7.50;99.90;;;;;;4993346;28;20461;-65
2024/02/27 09:53:18;;;;;;;26.20;12.40;;;7.30;99.90;;;;;;4993891;28;20878;-67
2024/02/27 09:55:46;;;;;;;24.37;12.60;;;7.20;99.90;;;;;;4988568;28;20467;-66
2024/02/27 09:58:13;;;;;;;25.23;13.10;;;7.30;99.90;;;;;;4993652;28;21012;-67
2024/02/27 10:00:42;;;;;;;21.13;11.07;;;7.40;99.90;;;;;;4991645;28;20494;-67
2024/02/27 10:03:10;;;;;;;20.83;11.67;;;7.40;99.90;;;;;;4993508;28;20446;-67
2024/02/27 10:05:38;;;;;;;22.57;12.00;;;7.40;99.90;;;;;;4987240;28;20437;-65
2024/02/27 10:08:14;;;;;;;17.27;11.17;;;7.50;99.90;;;;;;4992902;28;20875;-66
2024/02/27 10:10:41;;;;;;;23.70;13.10;;;7.60;99.90;;;;;;4990755;28;20805;-64
2024/02/27 10:13:08;;;;;;;21.47;10.13;;;7.60;99.90;;;;;;4992186;28;20531;-66
2024/02/27 10:15:35;;;;;;;24.50;13.10;;;7.60;99.90;;;;;;4992327;28;20532;-66
2024/02/27 10:18:05;;;;;;;23.13;11.10;;;7.70;99.90;;;;;;4993328;28;20235;-65
2024/02/27 10:20:32;;;;;;;20.60;13.57;;;7.80;99.90;;;;;;4993424;28;20547;-65
2024/02/27 10:22:59;;;;;;;22.30;12.50;;;7.70;99.90;;;;;;4993583;28;20542;-65
2024/02/27 10:25:27;;;;;;;23.33;12.90;;;7.70;99.90;;;;;;4993493;28;20529;-64
2024/02/27 10:27:56;;;;;;;32.30;12.03;;;7.70;99.90;;;;;;4993525;28;20914;-67
2024/02/27 10:30:25;;;;;;;32.33;16.73;;;7.80;99.90;;;;;;4993436;28;20621;-64
2024/02/27 10:32:52;;;;;;;24.80;12.50;;;7.80;99.90;;;;;;4993405;28;20431;-65
2024/02/27 10:35:22;;;;;;;22.33;12.33;;;7.80;99.90;;;;;;4993745;28;20617;-65
2024/02/27 10:37:49;;;;;;;20.00;12.60;;;7.70;99.90;;;;;;4993457;28;20453;-65
2024/02/27 10:40:16;;;;;;;28.23;12.90;;;7.70;99.90;;;;;;4991843;28;20465;-66
2024/02/27 10:42:43;;;;;;;19.87;11.63;;;7.70;99.90;;;;;;4992817;28;20489;-66
2024/02/27 10:45:11;;;;;;;27.90;12.93;;;7.80;99.90;;;;;;4993093;28;20469;-67
2024/02/27 10:47:38;;;;;;;20.87;12.03;;;7.90;99.90;;;;;;4992359;28;20533;-67
2024/02/27 10:50:06;;;;;;;22.47;13.67;;;8.00;99.90;;;;;;4991962;28;20586;-67
2024/02/27 10:52:37;;;;;;;27.03;13.43;;;7.90;99.90;;;;;;4991796;28;20807;-66
2024/02/27 10:55:05;;;;;;;19.83;12.13;;;8.00;99.90;;;;;;4975691;28;20491;-67
2024/02/27 10:57:33;;;;;;;19.53;10.90;;;8.00;99.90;;;;;;4973261;28;20782;-66
2024/02/27 11:00:00;;;;;;;40.17;17.13;;;8.00;99.90;;;;;;4972781;28;20556;-66
2024/02/27 11:02:28;;;;;;;25.33;12.90;;;8.00;99.90;;;;;;4972964;28;20951;-66
2024/02/27 11:04:58;;;;;;;18.77;12.23;;;8.10;99.90;;;;;;4973007;28;20443;-66
2024/02/27 11:07:25;;;;;;;20.13;11.73;;;8.10;99.90;;;;;;4972816;28;20448;-65
2024/02/27 11:09:58;;;;;;;27.10;12.13;;;8.10;99.90;;;;;;4972777;28;20705;-66
2024/02/27 11:12:28;;;;;;;23.07;12.10;;;8.10;99.90;;;;;;4972748;28;20862;-66
2024/02/27 11:15:03;;;;;;;20.30;11.90;;;8.20;99.90;;;;;;4973002;28;20565;-66
2024/02/27 11:17:34;;;;;;;23.90;11.43;;;8.20;99.90;;;;;;4972734;28;20449;-66
2024/02/27 11:20:02;;;;;;;24.73;11.10;;;8.20;99.90;;;;;;4972456;28;20506;-65
2024/02/27 11:22:30;;;;;;;31.33;12.27;;;8.30;99.90;;;;;;4972746;28;20449;-66
2024/02/27 11:24:58;;;;;;;17.87;10.60;;;8.40;99.90;;;;;;4972657;28;20454;-66
2024/02/27 11:27:27;;;;;;;21.00;11.30;;;8.40;99.90;;;;;;4972672;28;20585;-67
2024/02/27 11:29:57;;;;;;;18.83;11.27;;;8.50;99.90;;;;;;4972438;28;20471;-67
2024/02/27 11:32:24;;;;;;;19.63;12.00;;;8.50;99.90;;;;;;4972567;28;20960;-67
2024/02/27 11:34:51;;;;;;;20.37;10.67;;;8.80;99.90;;;;;;4980776;28;20613;-65
2024/02/27 11:37:20;;;;;;;21.30;10.97;;;8.60;99.90;;;;;;4991913;28;20507;-66
2024/02/27 11:39:48;;;;;;;17.57;10.87;;;8.60;99.90;;;;;;4991649;28;20463;-66
2024/02/27 11:42:26;;;;;;;18.00;9.93;;;8.70;99.90;;;;;;4992061;28;20450;-68
2024/02/27 11:45:04;;;;;;;17.50;10.70;;;8.70;99.90;;;;;;4991918;28;20873;-67
2024/02/27 11:47:36;;;;;;;14.60;10.37;;;9.00;99.90;;;;;;4992031;28;20987;-65
2024/02/27 11:50:03;;;;;;;20.40;10.10;;;8.90;99.90;;;;;;4991777;28;20485;-65
2024/02/27 11:52:33;;;;;;;21.90;11.57;;;8.90;99.90;;;;;;4994531;28;20818;-66
2024/02/27 11:55:06;;;;;;;17.70;10.67;;;8.90;99.90;;;;;;4995608;28;20897;-65
2024/02/27 11:57:37;;;;;;;18.53;10.20;;;8.90;99.90;;;;;;4994974;28;20457;-66
2024/02/27 12:00:07;;;;;;;17.20;10.87;;;8.90;99.90;;;;;;4994948;28;20875;-67
2024/02/27 12:02:36;;;;;;;16.60;10.13;;;8.90;99.90;;;;;;4995385;28;20447;-66
2024/02/27 12:05:04;;;;;;;18.17;9.70;;;8.90;99.90;;;;;;4995607;28;20803;-66
2024/02/27 12:07:31;;;;;;;15.40;9.07;;;9.10;99.90;;;;;;4995075;28;20442;-65
2024/02/27 12:10:10;;;;;;;15.07;8.87;;;8.90;99.90;;;;;;4994572;28;20505;-65
2024/02/27 12:12:39;;;;;;;14.63;9.27;;;8.90;99.90;;;;;;4994860;28;20534;-67
2024/02/27 12:15:07;;;;;;;11.97;8.10;;;8.90;99.90;;;;;;4995186;28;20489;-66
2024/02/27 12:17:36;;;;;;;18.33;10.27;;;8.90;99.90;;;;;;4994836;28;20449;-65
2024/02/27 12:20:05;;;;;;;12.73;8.20;;;8.90;99.90;;;;;;4994686;28;20786;-66
2024/02/27 12:22:33;;;;;;;11.20;7.80;;;8.90;99.90;;;;;;4994741;28;20442;-66
2024/02/27 12:25:00;;;;;;;16.87;8.00;;;8.90;99.90;;;;;;4995155;28;20497;-66
2024/02/27 12:27:27;;;;;;;14.43;8.93;;;9.00;99.90;;;;;;4995185;28;20537;-66
2024/02/27 12:29:55;;;;;;;13.07;8.10;;;9.00;99.90;;;;;;4996482;28;20849;-68
2024/02/27 12:32:22;;;;;;;16.90;8.40;;;9.20;99.90;;;;;;4995415;28;20464;-65
2024/02/27 12:34:49;;;;;;;15.80;7.90;;;9.10;99.90;;;;;;4995089;28;20571;-65
2024/02/27 12:37:18;;;;;;;13.97;8.40;;;9.10;99.90;;;;;;4994326;28;20468;-66
2024/02/27 12:39:47;;;;;;;9.77;7.63;;;9.10;99.90;;;;;;4993856;28;20463;-66
2024/02/27 12:42:14;;;;;;;20.37;7.20;;;9.00;99.90;;;;;;4994044;28;20866;-66
2024/02/27 12:44:47;;;;;;;12.40;7.77;;;9.00;99.90;;;;;;4993998;28;20470;-67
2024/02/27 12:47:16;;;;;;;11.73;8.03;;;8.90;99.90;;;;;;4994732;28;20427;-68
2024/02/27 12:49:44;;;;;;;17.47;8.23;;;8.90;99.90;;;;;;4994139;28;21058;-66
2024/02/27 12:52:16;;;;;;;11.60;6.87;;;8.90;99.90;;;;;;4994847;28;20461;-66